sensor_id;sensor_type;location;lat;lon;timestamp;pressure;altitude;pressure_sealevel;temperature;humidity
47366;BME280;33105;47.964;7.982;2023-02-28T00:00:14;97078.75;;;-1.48;58.81
47366;BME280;33105;47.964;7.982;2023-02-28T00:03:15;97092.47;;;-1.43;57.83
47366;BME280;33105;47.964;7.982;2023-02-28T00:06:17;97092.25;;;-1.56;59.05
47366;BME280;33105;47.964;7.982;2023-02-28T00:09:18;97085.44;;;-1.44;58.52
47366;BME280;33105;47.964;7.982;2023-02-28T00:12:19;97089.13;;;-1.45;58.62
47366;BME280;33105;47.964;7.982;2023-02-28T00:15:20;97079.25;;;-1.44;59.05
47366;BME280;33105;47.964;7.982;2023-02-28T00:18:23;97088.28;;;-1.45;58.46
47366;BME280;33105;47.964;7.982;2023-02-28T00:21:24;97089.78;;;-1.43;59.07
47366;BME280;33105;47.964;7.982;2023-02-28T00:24:26;97081.09;;;-1.45;58.67
47366;BME280;33105;47.964;7.982;2023-02-28T00:27:27;97081.75;;;-1.43;59.38
47366;BME280;33105;47.964;7.982;2023-02-28T00:30:28;97089.59;;;-1.41;58.77
47366;BME280;33105;47.964;7.982;2023-02-28T00:33:29;97083.19;;;-1.55;60.10
47366;BME280;33105;47.964;7.982;2023-02-28T00:36:30;97084.41;;;-1.43;59.74
47366;BME280;33105;47.964;7.982;2023-02-28T00:39:34;97075.69;;;-1.37;58.93
47366;BME280;33105;47.964;7.982;2023-02-28T00:42:36;97085.03;;;-1.32;59.24
47366;BME280;33105;47.964;7.982;2023-02-28T00:45:37;97082.34;;;-1.32;60.05
47366;BME280;33105;47.964;7.982;2023-02-28T00:48:38;97082.56;;;-1.42;59.63
47366;BME280;33105;47.964;7.982;2023-02-28T00:51:40;97088.41;;;-1.39;59.92
47366;BME280;33105;47.964;7.982;2023-02-28T00:54:41;97080.72;;;-1.42;59.78
47366;BME280;33105;47.964;7.982;2023-02-28T00:57:42;97073.16;;;-1.38;60.05
47366;BME280;33105;47.964;7.982;2023-02-28T01:00:44;97079.53;;;-1.39;61.73
47366;BME280;33105;47.964;7.982;2023-02-28T01:03:49;97086.75;;;-1.40;60.03
47366;BME280;33105;47.964;7.982;2023-02-28T01:06:50;97079.38;;;-1.38;59.55
47366;BME280;33105;47.964;7.982;2023-02-28T01:09:52;97075.19;;;-1.40;60.48
47366;BME280;33105;47.964;7.982;2023-02-28T01:12:53;97078.53;;;-1.38;60.50
47366;BME280;33105;47.964;7.982;2023-02-28T01:15:55;97077.56;;;-1.45;60.56
47366;BME280;33105;47.964;7.982;2023-02-28T01:18:58;97074.34;;;-1.41;60.91
47366;BME280;33105;47.964;7.982;2023-02-28T01:22:04;97069.84;;;-1.40;60.71
47366;BME280;33105;47.964;7.982;2023-02-28T01:25:06;97065.44;;;-1.33;59.61
47366;BME280;33105;47.964;7.982;2023-02-28T01:28:07;97069.66;;;-1.39;60.60
47366;BME280;33105;47.964;7.982;2023-02-28T01:31:09;97068.66;;;-1.38;60.78
47366;BME280;33105;47.964;7.982;2023-02-28T01:34:12;97071.16;;;-1.36;61.42
47366;BME280;33105;47.964;7.982;2023-02-28T01:37:13;97067.56;;;-1.28;60.93
47366;BME280;33105;47.964;7.982;2023-02-28T01:40:18;97070.91;;;-1.26;60.70
47366;BME280;33105;47.964;7.982;2023-02-28T01:43:28;97078.19;;;-1.35;61.42
47366;BME280;33105;47.964;7.982;2023-02-28T01:46:32;97073.66;;;-1.34;60.85
47366;BME280;33105;47.964;7.982;2023-02-28T01:49:33;97065.31;;;-1.40;61.14
47366;BME280;33105;47.964;7.982;2023-02-28T01:52:35;97068.28;;;-1.34;60.51
47366;BME280;33105;47.964;7.982;2023-02-28T01:55:37;97055.53;;;-1.32;61.33
47366;BME280;33105;47.964;7.982;2023-02-28T01:58:39;97058.94;;;-1.39;60.99
47366;BME280;33105;47.964;7.982;2023-02-28T02:01:41;97054.22;;;-1.37;60.29
47366;BME280;33105;47.964;7.982;2023-02-28T02:05:00;97055.53;;;-1.32;61.46
47366;BME280;33105;47.964;7.982;2023-02-28T02:08:10;97051.84;;;-1.31;61.30
47366;BME280;33105;47.964;7.982;2023-02-28T02:11:13;97049.19;;;-1.31;60.88
47366;BME280;33105;47.964;7.982;2023-02-28T02:17:31;97051.03;;;-1.32;60.88
47366;BME280;33105;47.964;7.982;2023-02-28T02:31:48;97037.78;;;-1.33;61.12
47366;BME280;33105;47.964;7.982;2023-02-28T02:35:11;97034.16;;;-1.41;61.18
47366;BME280;33105;47.964;7.982;2023-02-28T02:38:38;97035.78;;;-1.31;60.85
47366;BME280;33105;47.964;7.982;2023-02-28T02:41:53;97037.50;;;-1.39;61.86
47366;BME280;33105;47.964;7.982;2023-02-28T02:45:05;97035.84;;;-1.40;63.14
47366;BME280;33105;47.964;7.982;2023-02-28T02:48:12;97034.47;;;-1.35;62.95
47366;BME280;33105;47.964;7.982;2023-02-28T02:51:17;97047.88;;;-1.35;63.04
47366;BME280;33105;47.964;7.982;2023-02-28T02:54:31;97036.13;;;-1.34;62.50
47366;BME280;33105;47.964;7.982;2023-02-28T02:57:47;97037.50;;;-1.39;63.29
47366;BME280;33105;47.964;7.982;2023-02-28T03:00:55;97034.00;;;-1.39;63.69
47366;BME280;33105;47.964;7.982;2023-02-28T03:04:05;97034.47;;;-1.35;63.86
47366;BME280;33105;47.964;7.982;2023-02-28T03:07:08;97030.66;;;-1.41;64.45
47366;BME280;33105;47.964;7.982;2023-02-28T03:10:32;97037.69;;;-1.40;65.06
47366;BME280;33105;47.964;7.982;2023-02-28T03:13:46;97042.19;;;-1.41;65.43
47366;BME280;33105;47.964;7.982;2023-02-28T03:17:02;97039.53;;;-1.41;65.24
47366;BME280;33105;47.964;7.982;2023-02-28T03:20:36;97031.19;;;-1.46;65.88
47366;BME280;33105;47.964;7.982;2023-02-28T03:24:10;97039.50;;;-1.55;67.06
47366;BME280;33105;47.964;7.982;2023-02-28T03:27:29;97037.16;;;-1.58;68.54
47366;BME280;33105;47.964;7.982;2023-02-28T03:30:57;97044.38;;;-1.59;68.77
47366;BME280;33105;47.964;7.982;2023-02-28T03:34:07;97039.50;;;-1.55;69.03
47366;BME280;33105;47.964;7.982;2023-02-28T03:37:13;97034.66;;;-1.60;70.20
47366;BME280;33105;47.964;7.982;2023-02-28T03:40:20;97040.38;;;-1.63;70.58
47366;BME280;33105;47.964;7.982;2023-02-28T03:43:27;97038.41;;;-1.69;72.89
47366;BME280;33105;47.964;7.982;2023-02-28T03:46:34;97043.28;;;-1.73;72.43
47366;BME280;33105;47.964;7.982;2023-02-28T03:49:41;97044.50;;;-1.75;74.89
47366;BME280;33105;47.964;7.982;2023-02-28T03:53:00;97047.88;;;-1.81;76.41
47366;BME280;33105;47.964;7.982;2023-02-28T03:56:09;97042.69;;;-1.83;75.61
47366;BME280;33105;47.964;7.982;2023-02-28T03:59:30;97050.63;;;-1.97;76.30
47366;BME280;33105;47.964;7.982;2023-02-28T04:02:35;97051.47;;;-1.97;76.21
47366;BME280;33105;47.964;7.982;2023-02-28T04:05:53;97040.06;;;-1.91;77.64
47366;BME280;33105;47.964;7.982;2023-02-28T04:08:55;97043.22;;;-1.87;76.16
47366;BME280;33105;47.964;7.982;2023-02-28T04:11:56;97039.41;;;-1.93;76.15
47366;BME280;33105;47.964;7.982;2023-02-28T04:14:57;97042.94;;;-2.23;80.14
47366;BME280;33105;47.964;7.982;2023-02-28T04:17:59;97052.78;;;-2.63;82.64
47366;BME280;33105;47.964;7.982;2023-02-28T04:21:00;97053.03;;;-2.42;82.34
47366;BME280;33105;47.964;7.982;2023-02-28T04:24:02;97054.63;;;-2.63;82.59
47366;BME280;33105;47.964;7.982;2023-02-28T04:27:03;97055.59;;;-2.48;83.28
47366;BME280;33105;47.964;7.982;2023-02-28T04:30:05;97053.63;;;-2.54;83.60
47366;BME280;33105;47.964;7.982;2023-02-28T04:33:06;97050.69;;;-2.36;82.91
47366;BME280;33105;47.964;7.982;2023-02-28T04:36:08;97052.16;;;-2.26;82.39
47366;BME280;33105;47.964;7.982;2023-02-28T04:39:09;97053.97;;;-2.65;84.36
47366;BME280;33105;47.964;7.982;2023-02-28T04:42:11;97050.13;;;-2.63;85.18
47366;BME280;33105;47.964;7.982;2023-02-28T04:45:13;97047.34;;;-2.38;84.11
47366;BME280;33105;47.964;7.982;2023-02-28T04:48:14;97052.25;;;-2.97;86.12
47366;BME280;33105;47.964;7.982;2023-02-28T04:51:18;97053.03;;;-2.97;86.94
47366;BME280;33105;47.964;7.982;2023-02-28T04:54:20;97055.44;;;-2.55;85.08
47366;BME280;33105;47.964;7.982;2023-02-28T04:57:21;97059.91;;;-2.47;84.40
47366;BME280;33105;47.964;7.982;2023-02-28T05:00:23;97060.31;;;-2.58;84.56
47366;BME280;33105;47.964;7.982;2023-02-28T05:03:24;97071.75;;;-2.97;85.55
47366;BME280;33105;47.964;7.982;2023-02-28T05:06:27;97065.34;;;-2.63;86.06
47366;BME280;33105;47.964;7.982;2023-02-28T05:09:29;97065.59;;;-2.42;84.07
47366;BME280;33105;47.964;7.982;2023-02-28T05:12:30;97074.06;;;-2.78;85.03
47366;BME280;33105;47.964;7.982;2023-02-28T05:15:32;97084.47;;;-2.99;86.49
47366;BME280;33105;47.964;7.982;2023-02-28T05:18:33;97089.00;;;-3.16;86.48
47366;BME280;33105;47.964;7.982;2023-02-28T05:21:39;97083.97;;;-3.11;86.63
47366;BME280;33105;47.964;7.982;2023-02-28T05:24:40;97083.66;;;-3.08;86.56
47366;BME280;33105;47.964;7.982;2023-02-28T05:27:43;97089.47;;;-2.88;87.45
47366;BME280;33105;47.964;7.982;2023-02-28T05:30:44;97081.94;;;-2.84;85.52
47366;BME280;33105;47.964;7.982;2023-02-28T05:33:45;97082.59;;;-2.74;86.48
47366;BME280;33105;47.964;7.982;2023-02-28T05:36:47;97088.41;;;-2.62;86.79
47366;BME280;33105;47.964;7.982;2023-02-28T05:39:48;97088.72;;;-2.57;85.82
47366;BME280;33105;47.964;7.982;2023-02-28T05:42:52;97093.06;;;-2.64;85.19
47366;BME280;33105;47.964;7.982;2023-02-28T05:45:53;97092.22;;;-2.57;85.32
47366;BME280;33105;47.964;7.982;2023-02-28T05:48:55;97091.34;;;-3.04;85.95
47366;BME280;33105;47.964;7.982;2023-02-28T05:51:58;97085.81;;;-3.11;88.09
47366;BME280;33105;47.964;7.982;2023-02-28T05:55:00;97088.13;;;-2.76;86.61
47366;BME280;33105;47.964;7.982;2023-02-28T05:58:02;97089.28;;;-2.78;85.67
47366;BME280;33105;47.964;7.982;2023-02-28T06:01:23;97091.84;;;-3.01;87.51
47366;BME280;33105;47.964;7.982;2023-02-28T06:04:24;97090.84;;;-3.00;87.48
47366;BME280;33105;47.964;7.982;2023-02-28T06:07:26;97095.31;;;-2.92;87.31
47366;BME280;33105;47.964;7.982;2023-02-28T06:10:27;97097.47;;;-2.96;87.64
47366;BME280;33105;47.964;7.982;2023-02-28T06:13:28;97091.34;;;-3.04;87.48
47366;BME280;33105;47.964;7.982;2023-02-28T06:16:31;97092.13;;;-2.96;87.34
47366;BME280;33105;47.964;7.982;2023-02-28T06:19:33;97096.84;;;-3.06;87.81
47366;BME280;33105;47.964;7.982;2023-02-28T06:22:36;97089.31;;;-3.02;87.26
47366;BME280;33105;47.964;7.982;2023-02-28T06:25:38;97099.69;;;-3.08;87.34
47366;BME280;33105;47.964;7.982;2023-02-28T06:28:39;97102.19;;;-3.06;86.56
47366;BME280;33105;47.964;7.982;2023-02-28T06:31:41;97100.69;;;-3.00;86.38
47366;BME280;33105;47.964;7.982;2023-02-28T06:34:42;97108.00;;;-2.86;84.93
47366;BME280;33105;47.964;7.982;2023-02-28T06:37:43;97102.31;;;-2.83;85.92
47366;BME280;33105;47.964;7.982;2023-02-28T06:40:53;97109.78;;;-2.62;84.31
47366;BME280;33105;47.964;7.982;2023-02-28T06:43:55;97118.16;;;-2.57;83.09
47366;BME280;33105;47.964;7.982;2023-02-28T06:46:56;97119.44;;;-2.45;82.60
47366;BME280;33105;47.964;7.982;2023-02-28T06:49:57;97117.91;;;-2.31;82.68
47366;BME280;33105;47.964;7.982;2023-02-28T06:52:58;97117.31;;;-2.66;82.66
47366;BME280;33105;47.964;7.982;2023-02-28T06:56:04;97124.75;;;-2.29;82.76
47366;BME280;33105;47.964;7.982;2023-02-28T06:59:06;97117.13;;;-2.09;81.13
47366;BME280;33105;47.964;7.982;2023-02-28T07:02:08;97123.53;;;-2.73;85.01
47366;BME280;33105;47.964;7.982;2023-02-28T07:05:09;97126.63;;;-2.46;83.67
47366;BME280;33105;47.964;7.982;2023-02-28T07:08:10;97127.00;;;-2.65;83.15
47366;BME280;33105;47.964;7.982;2023-02-28T07:11:12;97136.38;;;-2.69;84.37
47366;BME280;33105;47.964;7.982;2023-02-28T07:14:13;97133.88;;;-2.70;84.43
47366;BME280;33105;47.964;7.982;2023-02-28T07:17:14;97140.38;;;-2.65;84.64
47366;BME280;33105;47.964;7.982;2023-02-28T07:20:16;97145.41;;;-2.70;83.27
47366;BME280;33105;47.964;7.982;2023-02-28T07:23:18;97138.81;;;-2.35;83.67
47366;BME280;33105;47.964;7.982;2023-02-28T07:26:20;97134.22;;;-2.18;80.80
47366;BME280;33105;47.964;7.982;2023-02-28T07:29:21;97132.03;;;-2.15;79.67
47366;BME280;33105;47.964;7.982;2023-02-28T07:32:23;97135.47;;;-1.98;78.08
47366;BME280;33105;47.964;7.982;2023-02-28T07:35:24;97130.34;;;-2.08;77.80
47366;BME280;33105;47.964;7.982;2023-02-28T07:38:25;97134.53;;;-2.13;79.39
47366;BME280;33105;47.964;7.982;2023-02-28T07:41:26;97132.00;;;-2.07;78.24
47366;BME280;33105;47.964;7.982;2023-02-28T07:44:28;97130.53;;;-1.78;75.39
47366;BME280;33105;47.964;7.982;2023-02-28T07:47:30;97135.78;;;-1.62;74.48
47366;BME280;33105;47.964;7.982;2023-02-28T07:50:32;97134.41;;;-1.50;74.74
47366;BME280;33105;47.964;7.982;2023-02-28T07:53:33;97141.53;;;-1.73;73.86
47366;BME280;33105;47.964;7.982;2023-02-28T07:56:34;97130.59;;;-1.32;73.87
47366;BME280;33105;47.964;7.982;2023-02-28T07:59:36;97137.34;;;-1.22;72.07
47366;BME280;33105;47.964;7.982;2023-02-28T08:02:37;97134.22;;;-1.25;71.05
47366;BME280;33105;47.964;7.982;2023-02-28T08:05:39;97134.44;;;-1.12;72.25
47366;BME280;33105;47.964;7.982;2023-02-28T08:08:41;97138.19;;;-1.21;72.74
47366;BME280;33105;47.964;7.982;2023-02-28T08:11:42;97131.09;;;-1.14;71.46
47366;BME280;33105;47.964;7.982;2023-02-28T08:14:44;97145.56;;;-1.23;70.20
47366;BME280;33105;47.964;7.982;2023-02-28T08:17:45;97139.50;;;-1.17;69.04
47366;BME280;33105;47.964;7.982;2023-02-28T08:20:46;97140.13;;;-1.07;69.25
47366;BME280;33105;47.964;7.982;2023-02-28T08:23:49;97141.50;;;-0.96;71.15
47366;BME280;33105;47.964;7.982;2023-02-28T08:26:51;97139.00;;;-0.98;71.00
47366;BME280;33105;47.964;7.982;2023-02-28T08:29:52;97152.31;;;-0.82;69.20
47366;BME280;33105;47.964;7.982;2023-02-28T08:32:54;97154.44;;;-0.77;67.28
47366;BME280;33105;47.964;7.982;2023-02-28T08:35:56;97157.13;;;-0.77;68.04
47366;BME280;33105;47.964;7.982;2023-02-28T08:38:58;97167.47;;;-0.74;67.21
47366;BME280;33105;47.964;7.982;2023-02-28T08:42:00;97167.03;;;-0.78;66.92
47366;BME280;33105;47.964;7.982;2023-02-28T08:45:02;97164.72;;;-0.66;67.43
47366;BME280;33105;47.964;7.982;2023-02-28T08:48:04;97174.63;;;-0.66;68.05
47366;BME280;33105;47.964;7.982;2023-02-28T08:51:08;97172.25;;;-0.61;67.26
47366;BME280;33105;47.964;7.982;2023-02-28T08:54:10;97174.72;;;-0.75;67.17
47366;BME280;33105;47.964;7.982;2023-02-28T08:57:13;97179.88;;;-0.73;67.45
47366;BME280;33105;47.964;7.982;2023-02-28T09:00:15;97180.47;;;-0.63;67.85
47366;BME280;33105;47.964;7.982;2023-02-28T09:03:16;97183.69;;;-0.68;67.89
47366;BME280;33105;47.964;7.982;2023-02-28T09:06:19;97190.19;;;-0.47;67.56
47366;BME280;33105;47.964;7.982;2023-02-28T09:09:21;97184.81;;;-0.62;68.58
47366;BME280;33105;47.964;7.982;2023-02-28T09:12:26;97178.25;;;-0.59;68.71
47366;BME280;33105;47.964;7.982;2023-02-28T09:15:28;97182.91;;;-0.39;68.08
47366;BME280;33105;47.964;7.982;2023-02-28T09:18:30;97180.41;;;-0.40;67.73
47366;BME280;33105;47.964;7.982;2023-02-28T09:21:31;97190.50;;;-0.80;69.74
47366;BME280;33105;47.964;7.982;2023-02-28T09:24:32;97185.59;;;-0.24;69.89
47366;BME280;33105;47.964;7.982;2023-02-28T09:27:33;97184.41;;;-0.74;69.90
47366;BME280;33105;47.964;7.982;2023-02-28T09:30:34;97177.81;;;-0.86;68.79
47366;BME280;33105;47.964;7.982;2023-02-28T09:33:36;97186.13;;;-0.58;68.67
47366;BME280;33105;47.964;7.982;2023-02-28T09:36:37;97200.69;;;-0.52;67.37
47366;BME280;33105;47.964;7.982;2023-02-28T09:39:38;97192.03;;;-0.62;68.32
47366;BME280;33105;47.964;7.982;2023-02-28T09:42:40;97192.66;;;-0.23;66.53
47366;BME280;33105;47.964;7.982;2023-02-28T09:45:44;97198.72;;;-0.44;69.31
47366;BME280;33105;47.964;7.982;2023-02-28T09:48:49;97199.25;;;-0.63;70.03
47366;BME280;33105;47.964;7.982;2023-02-28T09:52:01;97207.53;;;-0.73;68.84
47366;BME280;33105;47.964;7.982;2023-02-28T09:55:33;97203.63;;;-0.47;66.74
47366;BME280;33105;47.964;7.982;2023-02-28T09:58:46;97203.19;;;-0.36;68.05
47366;BME280;33105;47.964;7.982;2023-02-28T10:05:09;97198.78;;;-0.29;66.25
47366;BME280;33105;47.964;7.982;2023-02-28T10:08:19;97195.72;;;-0.63;67.53
47366;BME280;33105;47.964;7.982;2023-02-28T10:11:26;97193.31;;;-0.96;68.95
47366;BME280;33105;47.964;7.982;2023-02-28T10:14:29;97193.47;;;-0.37;69.61
47366;BME280;33105;47.964;7.982;2023-02-28T10:17:39;97198.38;;;-0.41;68.28
47366;BME280;33105;47.964;7.982;2023-02-28T10:20:42;97196.19;;;-0.08;66.99
47366;BME280;33105;47.964;7.982;2023-02-28T10:23:44;97194.22;;;0.01;67.56
47366;BME280;33105;47.964;7.982;2023-02-28T10:26:51;97199.88;;;0.06;67.99
47366;BME280;33105;47.964;7.982;2023-02-28T10:29:56;97202.69;;;-0.02;68.47
47366;BME280;33105;47.964;7.982;2023-02-28T10:32:58;97199.06;;;0.20;66.88
47366;BME280;33105;47.964;7.982;2023-02-28T10:36:01;97208.13;;;0.05;65.25
47366;BME280;33105;47.964;7.982;2023-02-28T10:39:35;97205.44;;;0.05;65.97
47366;BME280;33105;47.964;7.982;2023-02-28T10:42:38;97208.03;;;0.13;65.61
47366;BME280;33105;47.964;7.982;2023-02-28T10:45:53;97216.13;;;-0.02;65.54
47366;BME280;33105;47.964;7.982;2023-02-28T10:49:03;97221.66;;;0.11;67.05
47366;BME280;33105;47.964;7.982;2023-02-28T10:52:09;97213.97;;;0.23;63.87
47366;BME280;33105;47.964;7.982;2023-02-28T10:55:19;97221.84;;;0.10;65.94
47366;BME280;33105;47.964;7.982;2023-02-28T10:58:28;97226.38;;;-0.06;67.08
47366;BME280;33105;47.964;7.982;2023-02-28T11:07:37;97219.53;;;0.36;64.83
47366;BME280;33105;47.964;7.982;2023-02-28T11:10:48;97220.09;;;0.46;65.14
47366;BME280;33105;47.964;7.982;2023-02-28T11:14:04;97219.63;;;0.43;65.71
47366;BME280;33105;47.964;7.982;2023-02-28T11:17:21;97219.44;;;0.44;65.84
47366;BME280;33105;47.964;7.982;2023-02-28T11:20:26;97214.03;;;0.59;64.51
47366;BME280;33105;47.964;7.982;2023-02-28T11:23:29;97224.03;;;0.50;64.36
47366;BME280;33105;47.964;7.982;2023-02-28T11:26:42;97217.47;;;0.38;66.56
47366;BME280;33105;47.964;7.982;2023-02-28T11:29:47;97213.78;;;0.75;64.00
47366;BME280;33105;47.964;7.982;2023-02-28T11:32:49;97202.50;;;1.01;63.83
47366;BME280;33105;47.964;7.982;2023-02-28T11:35:51;97206.06;;;0.87;64.28
47366;BME280;33105;47.964;7.982;2023-02-28T11:39:04;97224.50;;;0.68;65.05
47366;BME280;33105;47.964;7.982;2023-02-28T11:42:24;97228.41;;;0.51;66.19
47366;BME280;33105;47.964;7.982;2023-02-28T11:55:39;97206.81;;;0.45;66.21
47366;BME280;33105;47.964;7.982;2023-02-28T11:59:10;97201.44;;;0.30;65.81
47366;BME280;33105;47.964;7.982;2023-02-28T12:02:30;97201.72;;;0.35;65.50
47366;BME280;33105;47.964;7.982;2023-02-28T12:05:45;97208.19;;;0.55;64.49
47366;BME280;33105;47.964;7.982;2023-02-28T12:12:29;97203.59;;;0.49;65.36
47366;BME280;33105;47.964;7.982;2023-02-28T12:15:38;97213.75;;;0.68;64.69
47366;BME280;33105;47.964;7.982;2023-02-28T12:19:06;97203.66;;;0.92;65.02
47366;BME280;33105;47.964;7.982;2023-02-28T12:25:47;97191.50;;;1.17;62.69
47366;BME280;33105;47.964;7.982;2023-02-28T12:28:56;97193.56;;;0.79;65.03
47366;BME280;33105;47.964;7.982;2023-02-28T12:32:21;97187.25;;;1.08;64.33
47366;BME280;33105;47.964;7.982;2023-02-28T12:35:31;97194.38;;;1.16;63.32
47366;BME280;33105;47.964;7.982;2023-02-28T12:38:56;97188.66;;;1.25;61.44
47366;BME280;33105;47.964;7.982;2023-02-28T12:42:05;97189.81;;;1.38;64.39
47366;BME280;33105;47.964;7.982;2023-02-28T12:45:29;97197.63;;;1.32;63.65
47366;BME280;33105;47.964;7.982;2023-02-28T12:49:06;97193.00;;;1.26;64.21
47366;BME280;33105;47.964;7.982;2023-02-28T12:52:11;97190.28;;;1.69;62.31
47366;BME280;33105;47.964;7.982;2023-02-28T12:55:23;97191.31;;;1.68;62.38
47366;BME280;33105;47.964;7.982;2023-02-28T12:58:35;97185.81;;;1.55;64.10
47366;BME280;33105;47.964;7.982;2023-02-28T13:01:51;97174.25;;;1.33;61.72
47366;BME280;33105;47.964;7.982;2023-02-28T13:11:33;97163.53;;;2.36;60.96
47366;BME280;33105;47.964;7.982;2023-02-28T13:14:39;97166.69;;;1.71;60.09
47366;BME280;33105;47.964;7.982;2023-02-28T13:17:41;97167.41;;;1.86;63.54
47366;BME280;33105;47.964;7.982;2023-02-28T13:20:47;97169.97;;;1.94;61.29
47366;BME280;33105;47.964;7.982;2023-02-28T13:40:33;97174.16;;;2.45;59.68
47366;BME280;33105;47.964;7.982;2023-02-28T13:44:16;97169.09;;;2.22;59.71
47366;BME280;33105;47.964;7.982;2023-02-28T13:47:24;97167.94;;;2.51;59.53
47366;BME280;33105;47.964;7.982;2023-02-28T13:50:34;97167.97;;;2.57;61.49
47366;BME280;33105;47.964;7.982;2023-02-28T13:53:55;97171.72;;;2.56;59.60
47366;BME280;33105;47.964;7.982;2023-02-28T14:06:52;97171.16;;;2.67;59.88
47366;BME280;33105;47.964;7.982;2023-02-28T14:10:03;97180.03;;;2.61;58.01
47366;BME280;33105;47.964;7.982;2023-02-28T14:16:44;97189.91;;;3.02;57.87
47366;BME280;33105;47.964;7.982;2023-02-28T14:19:47;97187.88;;;3.24;59.17
47366;BME280;33105;47.964;7.982;2023-02-28T14:36:36;97204.66;;;3.06;55.88
47366;BME280;33105;47.964;7.982;2023-02-28T14:39:41;97192.28;;;3.51;57.20
47366;BME280;33105;47.964;7.982;2023-02-28T14:42:48;97194.28;;;3.03;57.13
47366;BME280;33105;47.964;7.982;2023-02-28T14:46:01;97201.75;;;3.01;57.91
47366;BME280;33105;47.964;7.982;2023-02-28T14:49:16;97195.59;;;2.59;58.67
47366;BME280;33105;47.964;7.982;2023-02-28T14:52:23;97197.84;;;2.56;58.19
47366;BME280;33105;47.964;7.982;2023-02-28T14:55:35;97199.06;;;2.53;59.11
47366;BME280;33105;47.964;7.982;2023-02-28T14:58:36;97204.06;;;2.56;59.48
47366;BME280;33105;47.964;7.982;2023-02-28T15:01:37;97197.44;;;2.59;59.56
47366;BME280;33105;47.964;7.982;2023-02-28T15:04:39;97211.44;;;2.82;58.41
47366;BME280;33105;47.964;7.982;2023-02-28T15:07:47;97208.03;;;2.60;58.82
47366;BME280;33105;47.964;7.982;2023-02-28T15:10:58;97205.06;;;2.90;58.56
47366;BME280;33105;47.964;7.982;2023-02-28T15:14:01;97203.81;;;2.99;57.88
47366;BME280;33105;47.964;7.982;2023-02-28T15:17:07;97206.38;;;2.59;58.35
47366;BME280;33105;47.964;7.982;2023-02-28T15:20:14;97213.78;;;2.44;58.25
47366;BME280;33105;47.964;7.982;2023-02-28T15:23:18;97219.22;;;2.16;59.00
47366;BME280;33105;47.964;7.982;2023-02-28T15:26:25;97211.78;;;1.90;61.00
47366;BME280;33105;47.964;7.982;2023-02-28T15:29:30;97209.72;;;1.92;59.63
47366;BME280;33105;47.964;7.982;2023-02-28T15:32:35;97215.00;;;1.79;59.90
47366;BME280;33105;47.964;7.982;2023-02-28T15:35:37;97223.09;;;1.79;60.92
47366;BME280;33105;47.964;7.982;2023-02-28T15:38:39;97215.31;;;1.63;62.52
47366;BME280;33105;47.964;7.982;2023-02-28T15:41:40;97214.78;;;1.53;62.70
47366;BME280;33105;47.964;7.982;2023-02-28T15:44:41;97217.09;;;1.56;61.91
47366;BME280;33105;47.964;7.982;2023-02-28T15:47:45;97223.97;;;1.58;62.38
47366;BME280;33105;47.964;7.982;2023-02-28T15:51:36;97220.44;;;1.58;62.18
47366;BME280;33105;47.964;7.982;2023-02-28T15:54:22;97225.19;;;1.13;62.89
47366;BME280;33105;47.964;7.982;2023-02-28T15:57:28;97212.50;;;1.28;63.95
47366;BME280;33105;47.964;7.982;2023-02-28T16:00:31;97214.34;;;1.49;63.58
47366;BME280;33105;47.964;7.982;2023-02-28T16:03:45;97217.84;;;1.43;61.97
47366;BME280;33105;47.964;7.982;2023-02-28T16:07:02;97218.88;;;1.49;62.36
47366;BME280;33105;47.964;7.982;2023-02-28T16:10:05;97220.72;;;1.42;62.48
47366;BME280;33105;47.964;7.982;2023-02-28T16:13:09;97221.47;;;1.57;61.04
47366;BME280;33105;47.964;7.982;2023-02-28T16:16:18;97219.22;;;1.60;61.20
47366;BME280;33105;47.964;7.982;2023-02-28T16:19:20;97225.44;;;1.61;62.49
47366;BME280;33105;47.964;7.982;2023-02-28T16:22:22;97228.78;;;1.63;62.26
47366;BME280;33105;47.964;7.982;2023-02-28T16:25:29;97227.88;;;1.56;61.58
47366;BME280;33105;47.964;7.982;2023-02-28T16:28:37;97234.44;;;1.47;61.58
47366;BME280;33105;47.964;7.982;2023-02-28T16:31:38;97223.97;;;1.37;61.61
47366;BME280;33105;47.964;7.982;2023-02-28T16:34:40;97230.97;;;1.31;62.76
47366;BME280;33105;47.964;7.982;2023-02-28T16:37:41;97231.72;;;1.25;62.47
47366;BME280;33105;47.964;7.982;2023-02-28T16:40:42;97236.78;;;1.14;62.40
47366;BME280;33105;47.964;7.982;2023-02-28T16:43:46;97236.97;;;1.12;62.09
47366;BME280;33105;47.964;7.982;2023-02-28T16:46:48;97249.56;;;0.90;63.61
47366;BME280;33105;47.964;7.982;2023-02-28T16:49:49;97242.94;;;0.72;65.16
47366;BME280;33105;47.964;7.982;2023-02-28T16:52:51;97256.09;;;0.52;66.24
47366;BME280;33105;47.964;7.982;2023-02-28T16:55:55;97255.28;;;0.51;65.89
47366;BME280;33105;47.964;7.982;2023-02-28T16:59:00;97255.09;;;0.38;66.44
47366;BME280;33105;47.964;7.982;2023-02-28T17:02:01;97260.22;;;0.18;67.29
47366;BME280;33105;47.964;7.982;2023-02-28T17:05:03;97259.44;;;0.10;67.35
47366;BME280;33105;47.964;7.982;2023-02-28T17:08:04;97260.00;;;0.05;67.33
47366;BME280;33105;47.964;7.982;2023-02-28T17:11:06;97264.81;;;-0.05;67.95
47366;BME280;33105;47.964;7.982;2023-02-28T17:14:07;97266.75;;;-0.14;69.33
47366;BME280;33105;47.964;7.982;2023-02-28T17:19:11;97262.41;;;1.95;63.12
47366;BME280;33105;47.964;7.982;2023-02-28T17:22:12;97257.09;;;1.16;65.14
47366;BME280;33105;47.964;7.982;2023-02-28T17:28:57;97292.16;;;0.28;69.62
47366;BME280;33105;47.964;7.982;2023-02-28T17:31:59;97287.34;;;0.09;69.14
47366;BME280;33105;47.964;7.982;2023-02-28T17:35:00;97296.09;;;-0.12;69.61
47366;BME280;33105;47.964;7.982;2023-02-28T17:38:02;97299.13;;;-0.30;71.35
47366;BME280;33105;47.964;7.982;2023-02-28T17:41:04;97295.13;;;-0.34;70.94
47366;BME280;33105;47.964;7.982;2023-02-28T17:44:05;97301.25;;;-0.48;71.35
47366;BME280;33105;47.964;7.982;2023-02-28T17:47:11;97301.63;;;-0.51;71.62
47366;BME280;33105;47.964;7.982;2023-02-28T17:50:18;97308.03;;;-0.52;72.15
47366;BME280;33105;47.964;7.982;2023-02-28T17:53:20;97311.53;;;-0.52;71.71
47366;BME280;33105;47.964;7.982;2023-02-28T17:56:25;97303.88;;;-0.63;71.90
47366;BME280;33105;47.964;7.982;2023-02-28T17:59:27;97303.84;;;-0.78;72.78
47366;BME280;33105;47.964;7.982;2023-02-28T18:02:34;97306.44;;;-0.70;72.27
47366;BME280;33105;47.964;7.982;2023-02-28T18:05:36;97309.97;;;-0.69;73.29